createdAt,value
2019-04-06T00:00:52.204Z,41.50
2019-04-06T00:01:52.206Z,43.30
2019-04-06T00:02:52.197Z,40.20
2019-04-06T00:03:52.231Z,38.20
2019-04-06T00:04:52.159Z,42.30
2019-04-06T00:05:52.142Z,44.50
2019-04-06T00:06:52.198Z,41.40
2019-04-06T00:07:52.185Z,41.00
2019-04-06T00:08:52.107Z,40.60
2019-04-06T00:09:52.096Z,42.30
2019-04-06T00:10:52.104Z,40.90
2019-04-06T00:11:52.073Z,38.30
2019-04-06T00:12:52.061Z,41.00
2019-04-06T00:13:52.084Z,43.40
2019-04-06T00:14:52.059Z,40.90
2019-04-06T00:15:52.045Z,43.60
2019-04-06T00:16:52.019Z,41.80
2019-04-06T00:17:52.024Z,40.70
2019-04-06T00:18:52.009Z,42.20
2019-04-06T00:19:52.015Z,41.10
2019-04-06T00:20:51.994Z,40.30
2019-04-06T00:21:51.994Z,39.70
2019-04-06T00:22:51.962Z,41.40
2019-04-06T00:23:51.957Z,38.80
2019-04-06T00:24:51.974Z,38.90
2019-04-06T00:25:51.949Z,39.00
2019-04-06T00:26:51.924Z,44.10
2019-04-06T00:27:51.902Z,42.70
2019-04-06T00:28:51.891Z,39.90
2019-04-06T00:29:51.875Z,45.00
2019-04-06T00:30:51.896Z,41.60
2019-04-06T00:31:51.867Z,39.50
2019-04-06T00:32:51.844Z,43.00
2019-04-06T00:33:51.855Z,38.30
2019-04-06T00:34:51.833Z,43.10
2019-04-06T00:35:51.833Z,42.90
2019-04-06T00:36:51.842Z,44.20
2019-04-06T00:37:51.843Z,39.60
2019-04-06T00:38:51.791Z,45.20
2019-04-06T00:39:51.767Z,41.80
2019-04-06T00:40:51.756Z,43.10
2019-04-06T00:41:51.788Z,43.20
2019-04-06T00:42:51.762Z,46.90
2019-04-06T00:43:51.756Z,47.30
2019-04-06T00:44:51.747Z,46.20
2019-04-06T00:45:51.703Z,46.90
2019-04-06T00:46:51.718Z,46.80
2019-04-06T00:47:51.696Z,45.90
2019-04-06T00:48:51.684Z,45.80
2019-04-06T00:49:51.670Z,45.90
2019-04-06T00:50:51.657Z,46.70
2019-04-06T00:51:51.655Z,47.80
2019-04-06T00:52:51.647Z,47.40
2019-04-06T00:53:51.644Z,45.30
2019-04-06T00:54:51.629Z,47.50
2019-04-06T00:55:56.073Z,47.80
2019-04-06T00:56:51.715Z,50.00
2019-04-06T00:57:51.569Z,43.10
2019-04-06T00:58:51.573Z,46.90
2019-04-06T00:59:51.589Z,48.90
2019-04-06T01:00:51.612Z,48.00
2019-04-06T01:01:51.524Z,47.80
2019-04-06T01:02:51.523Z,45.80
2019-04-06T01:03:51.514Z,48.30
2019-04-06T01:04:51.491Z,48.40
2019-04-06T01:05:51.530Z,47.10
2019-04-06T01:06:51.500Z,47.20
2019-04-06T01:07:51.467Z,46.90
2019-04-06T01:08:51.474Z,48.70
2019-04-06T01:09:51.458Z,47.80
2019-04-06T01:10:51.460Z,52.50
2019-04-06T01:11:51.416Z,49.80
2019-04-06T01:12:51.444Z,52.40
2019-04-06T01:13:51.413Z,52.30
2019-04-06T01:14:51.386Z,51.10
2019-04-06T01:15:51.386Z,52.60
2019-04-06T01:16:51.399Z,52.80
2019-04-06T01:17:51.356Z,57.30
2019-04-06T01:18:51.377Z,53.60
2019-04-06T01:19:51.388Z,50.70
2019-04-06T01:20:51.317Z,52.10
2019-04-06T01:21:51.318Z,51.40
2019-04-06T01:22:51.309Z,54.60
2019-04-06T01:23:51.321Z,51.90
2019-04-06T01:24:51.299Z,51.90
2019-04-06T01:25:51.275Z,53.80
2019-04-06T01:26:51.267Z,54.60
2019-04-06T01:27:51.338Z,52.90
2019-04-06T01:28:51.230Z,52.30
2019-04-06T01:29:51.219Z,52.50
2019-04-06T01:30:51.233Z,56.60
2019-04-06T01:31:51.211Z,56.30
2019-04-06T01:32:51.200Z,54.30
2019-04-06T01:33:51.186Z,49.00
2019-04-06T01:34:51.183Z,53.50
2019-04-06T01:35:51.170Z,52.00
2019-04-06T01:36:51.160Z,53.20
2019-04-06T01:37:51.140Z,49.00
2019-04-06T01:38:51.146Z,52.60
2019-04-06T01:39:51.110Z,51.60
2019-04-06T01:40:51.129Z,51.80
2019-04-06T01:41:51.098Z,48.30
2019-04-06T01:42:51.107Z,51.80
2019-04-06T01:43:51.116Z,49.10
2019-04-06T01:44:51.066Z,51.40
2019-04-06T01:45:51.062Z,47.40
2019-04-06T01:46:51.048Z,49.80
2019-04-06T01:47:51.031Z,59.10
2019-04-06T01:48:51.051Z,54.70
2019-04-06T01:49:51.020Z,52.30
2019-04-06T01:50:51.029Z,50.30
2019-04-06T01:51:51.068Z,54.30
2019-04-06T01:52:50.979Z,54.60
2019-04-06T01:53:50.963Z,52.00
2019-04-06T01:54:51.064Z,58.10
2019-04-06T01:55:50.949Z,55.00
2019-04-06T01:56:50.930Z,55.10
2019-04-06T01:57:50.925Z,53.30
2019-04-06T01:58:50.912Z,54.10
2019-04-06T01:59:50.909Z,55.50
2019-04-06T02:00:50.910Z,55.40
2019-04-06T02:01:50.872Z,55.00
2019-04-06T02:02:50.876Z,54.10
2019-04-06T02:03:50.847Z,56.90
2019-04-06T02:04:50.850Z,53.50
2019-04-06T02:05:50.840Z,53.80
2019-04-06T02:06:50.853Z,55.20
2019-04-06T02:07:50.811Z,55.20
2019-04-06T02:08:51.217Z,56.70
2019-04-06T02:09:50.777Z,55.90
2019-04-06T02:10:58.329Z,56.00
2019-04-06T02:11:50.752Z,54.50
2019-04-06T02:12:50.742Z,57.80
2019-04-06T02:13:50.776Z,54.80
2019-04-06T02:14:50.719Z,57.20
2019-04-06T02:15:50.737Z,54.70
2019-04-06T02:16:50.695Z,56.00
2019-04-06T02:17:50.685Z,58.00
2019-04-06T02:18:50.681Z,57.90
2019-04-06T02:19:50.681Z,53.80
2019-04-06T02:20:50.662Z,58.10
2019-04-06T02:21:50.639Z,55.90
2019-04-06T02:22:50.630Z,54.00
2019-04-06T02:23:50.625Z,56.80
2019-04-06T02:24:50.621Z,54.70
2019-04-06T02:25:50.595Z,58.10
2019-04-06T02:26:50.586Z,57.40
2019-04-06T02:27:50.610Z,57.30
2019-04-06T02:28:50.568Z,53.80
2019-04-06T02:29:50.553Z,57.20
2019-04-06T02:30:50.541Z,57.70
2019-04-06T02:31:50.532Z,54.30
2019-04-06T02:32:50.545Z,58.80
2019-04-06T02:33:50.543Z,62.10
2019-04-06T02:34:50.497Z,56.30
2019-04-06T02:35:50.512Z,55.00
2019-04-06T02:36:50.488Z,58.00
2019-04-06T02:37:50.465Z,59.90
2019-04-06T02:38:50.485Z,58.30
2019-04-06T02:39:50.639Z,58.20
2019-04-06T02:40:50.431Z,53.70
2019-04-06T02:41:50.439Z,61.00
2019-04-06T02:42:50.409Z,57.40
2019-04-06T02:43:50.520Z,56.50
2019-04-06T02:44:50.398Z,56.60
2019-04-06T02:45:50.418Z,52.30
2019-04-06T02:46:50.380Z,57.10
2019-04-06T02:47:50.513Z,54.90
2019-04-06T02:48:50.353Z,56.20
2019-04-06T02:49:50.332Z,56.90
2019-04-06T02:50:50.337Z,59.10
2019-04-06T02:51:50.516Z,60.00
2019-04-06T02:52:50.324Z,61.20
2019-04-06T02:53:50.303Z,64.00
2019-04-06T02:54:50.298Z,58.40
2019-04-06T02:55:50.266Z,59.90
2019-04-06T02:56:50.257Z,58.50
2019-04-06T02:57:50.273Z,62.00
2019-04-06T02:58:50.279Z,61.20
2019-04-06T02:59:50.226Z,62.00
2019-04-06T03:00:50.220Z,58.10
2019-04-06T03:01:50.221Z,62.00
2019-04-06T03:02:50.187Z,60.50
2019-04-06T03:03:50.205Z,61.50
2019-04-06T03:04:50.181Z,62.70
2019-04-06T03:05:50.157Z,67.30
2019-04-06T03:06:50.154Z,62.40
2019-04-06T03:07:50.135Z,61.00
2019-04-06T03:08:50.159Z,65.40
2019-04-06T03:09:50.148Z,64.10
2019-04-06T03:10:50.203Z,63.10
2019-04-06T03:11:50.095Z,66.60
2019-04-06T03:12:50.082Z,69.80
2019-04-06T03:13:50.090Z,63.30
2019-04-06T03:14:50.069Z,67.20
2019-04-06T03:15:50.067Z,67.30
2019-04-06T03:16:50.039Z,67.30
2019-04-06T03:17:50.250Z,64.40
2019-04-06T03:18:50.043Z,67.30
2019-04-06T03:19:50.014Z,61.80
2019-04-06T03:20:49.995Z,67.30
2019-04-06T03:21:50.002Z,62.60
2019-04-06T03:22:50.002Z,68.90
2019-04-06T03:23:52.125Z,64.30
2019-04-06T03:24:49.950Z,67.60
2019-04-06T03:25:50.006Z,69.40
2019-04-06T03:27:00.739Z,68.40
2019-04-06T03:27:50.931Z,71.80
2019-04-06T03:28:49.974Z,66.90
2019-04-06T03:29:57.563Z,73.50
2019-04-06T03:30:51.140Z,66.70
2019-04-06T03:31:49.883Z,75.70
2019-04-06T03:32:50.238Z,76.90
2019-04-06T03:33:49.940Z,74.40
2019-04-06T03:34:50.062Z,73.00
2019-04-06T03:35:51.185Z,76.70
2019-04-06T03:36:49.831Z,75.50
2019-04-06T03:37:49.811Z,73.10
2019-04-06T03:38:49.817Z,70.70
2019-04-06T03:39:49.800Z,76.10
2019-04-06T03:40:49.871Z,75.80
2019-04-06T03:41:49.762Z,72.30
2019-04-06T03:42:49.759Z,78.00
2019-04-06T03:43:49.764Z,73.30
2019-04-06T03:44:49.747Z,80.80
2019-04-06T03:45:49.740Z,74.90
2019-04-06T03:46:49.706Z,78.10
2019-04-06T03:47:49.691Z,81.30
2019-04-06T03:48:49.866Z,79.40
2019-04-06T03:49:49.666Z,77.50
2019-04-06T03:50:49.674Z,79.80
2019-04-06T03:51:49.651Z,88.10
2019-04-06T03:52:49.652Z,76.90
2019-04-06T03:53:49.874Z,71.90
2019-04-06T03:54:49.605Z,76.40
2019-04-06T03:55:49.598Z,75.50
2019-04-06T03:56:49.616Z,78.70
2019-04-06T03:57:49.568Z,74.80
2019-04-06T03:58:52.103Z,79.30
2019-04-06T03:59:49.718Z,71.70
2019-04-06T04:00:49.537Z,78.20
2019-04-06T04:01:49.525Z,77.10
2019-04-06T04:02:49.533Z,81.20
2019-04-06T04:03:49.521Z,80.70
2019-04-06T04:04:49.704Z,77.90
2019-04-06T04:05:49.512Z,83.00
2019-04-06T04:06:49.469Z,76.80
2019-04-06T04:07:49.459Z,79.70
2019-04-06T04:08:49.446Z,86.30
2019-04-06T04:09:49.488Z,81.60
2019-04-06T04:10:49.577Z,81.70
2019-04-06T04:11:49.491Z,79.70
2019-04-06T04:12:49.437Z,83.40
2019-04-06T04:13:49.400Z,80.00
2019-04-06T04:14:49.418Z,82.40
2019-04-06T04:15:49.394Z,85.30
2019-04-06T04:16:49.485Z,83.60
2019-04-06T04:17:49.365Z,82.50
2019-04-06T04:18:49.349Z,76.20
2019-04-06T04:19:49.334Z,80.90
2019-04-06T04:20:49.316Z,73.80
2019-04-06T04:21:49.352Z,82.50
2019-04-06T04:22:49.293Z,75.70
2019-04-06T04:23:49.287Z,81.50
2019-04-06T04:24:49.275Z,80.10
2019-04-06T04:25:49.286Z,82.10
2019-04-06T04:26:49.253Z,78.10
2019-04-06T04:27:49.254Z,81.00
2019-04-06T04:28:49.237Z,80.70
2019-04-06T04:29:49.222Z,83.20
2019-04-06T04:30:49.205Z,82.30
2019-04-06T04:31:49.225Z,81.00
2019-04-06T04:32:49.206Z,79.50
2019-04-06T04:33:49.170Z,82.40
2019-04-06T04:34:49.162Z,85.70
2019-04-06T04:35:49.153Z,81.60
2019-04-06T04:36:49.147Z,87.70
2019-04-06T04:37:49.144Z,84.30
2019-04-06T04:38:49.262Z,86.30
2019-04-06T04:39:49.109Z,83.50
2019-04-06T04:40:49.095Z,84.90
2019-04-06T04:41:49.215Z,86.60
2019-04-06T04:42:49.079Z,78.30
2019-04-06T04:43:49.110Z,86.80
2019-04-06T04:44:49.066Z,83.20
2019-04-06T04:45:49.071Z,92.20
2019-04-06T04:46:49.028Z,83.90
2019-04-06T04:47:50.311Z,87.30
2019-04-06T04:48:49.011Z,87.30
2019-04-06T04:49:49.202Z,89.00
2019-04-06T04:50:49.003Z,87.20
2019-04-06T04:51:48.988Z,91.40
2019-04-06T04:52:48.998Z,92.30
2019-04-06T04:53:48.968Z,97.60
2019-04-06T04:54:48.994Z,93.10
2019-04-06T04:55:48.932Z,90.10
2019-04-06T04:56:48.943Z,98.10
2019-04-06T04:57:48.919Z,93.40
2019-04-06T04:58:48.936Z,88.70
2019-04-06T04:59:48.891Z,98.10
2019-04-06T05:00:48.893Z,97.20
2019-04-06T05:01:48.866Z,95.50
2019-04-06T05:02:48.981Z,96.80
2019-04-06T05:03:48.857Z,93.60
2019-04-06T05:04:48.831Z,90.80
2019-04-06T05:05:48.820Z,96.70
2019-04-06T05:06:48.827Z,101.30
2019-04-06T05:07:48.830Z,101.00
2019-04-06T05:08:48.787Z,97.90
2019-04-06T05:09:48.775Z,97.20
2019-04-06T05:10:48.766Z,99.30
2019-04-06T05:11:49.155Z,93.80
2019-04-06T05:12:48.939Z,94.70
2019-04-06T05:13:48.854Z,97.40
2019-04-06T05:14:48.918Z,99.10
2019-04-06T05:15:48.706Z,103.90
2019-04-06T05:16:48.705Z,98.70
2019-04-06T05:17:48.704Z,99.80
2019-04-06T05:18:48.707Z,101.80
2019-04-06T05:19:48.669Z,102.80
2019-04-06T05:20:48.657Z,96.80
2019-04-06T05:21:48.642Z,104.00
2019-04-06T05:22:48.642Z,101.20
2019-04-06T05:23:48.643Z,106.30
2019-04-06T05:24:48.662Z,97.40
2019-04-06T05:25:48.602Z,107.10
2019-04-06T05:26:48.588Z,102.60
2019-04-06T05:27:52.552Z,102.90
2019-04-06T05:28:48.583Z,100.30
2019-04-06T05:29:48.559Z,97.50
2019-04-06T05:30:48.548Z,106.40
2019-04-06T05:31:48.531Z,99.40
2019-04-06T05:32:48.541Z,102.50
2019-04-06T05:33:48.510Z,105.10
2019-04-06T05:34:48.518Z,100.90
2019-04-06T05:35:48.501Z,101.00
2019-04-06T05:36:48.477Z,97.90
2019-04-06T05:37:48.469Z,110.00
2019-04-06T05:38:48.475Z,106.90
2019-04-06T05:39:48.443Z,103.30
2019-04-06T05:40:48.446Z,109.10
2019-04-06T05:41:50.442Z,103.70
2019-04-06T05:42:48.409Z,103.70
2019-04-06T05:43:48.739Z,105.30
2019-04-06T05:44:48.414Z,97.60
2019-04-06T05:45:48.393Z,101.90
2019-04-06T05:46:48.588Z,98.00
2019-04-06T05:47:48.358Z,95.90
2019-04-06T05:48:48.455Z,102.10
2019-04-06T05:49:48.343Z,103.20
2019-04-06T05:50:48.341Z,93.80
2019-04-06T05:51:48.394Z,95.90
2019-04-06T05:52:48.301Z,95.50
2019-04-06T05:53:48.302Z,102.50
2019-04-06T05:54:48.281Z,100.30
2019-04-06T05:55:48.270Z,97.50
2019-04-06T05:56:48.306Z,95.80
2019-04-06T05:57:48.264Z,99.90
2019-04-06T05:58:48.236Z,99.20
2019-04-06T05:59:48.229Z,102.30
2019-04-06T06:00:48.213Z,98.70
2019-04-06T06:01:49.316Z,97.80
2019-04-06T06:02:48.209Z,95.50
2019-04-06T06:03:48.179Z,93.90
2019-04-06T06:04:48.236Z,99.80
2019-04-06T06:05:48.160Z,99.00
2019-04-06T06:06:48.150Z,102.40
2019-04-06T06:07:48.142Z,96.50
2019-04-06T06:08:48.136Z,99.40
2019-04-06T06:09:48.243Z,95.20
2019-04-06T06:10:48.106Z,94.00
2019-04-06T06:11:48.203Z,93.70
2019-04-06T06:12:48.092Z,97.70
2019-04-06T06:13:48.085Z,93.90
2019-04-06T06:14:48.066Z,91.20
2019-04-06T06:15:48.054Z,102.20
2019-04-06T06:16:48.041Z,96.00
2019-04-06T06:17:48.028Z,95.60
2019-04-06T06:18:48.038Z,94.90
2019-04-06T06:19:48.006Z,100.40
2019-04-06T06:20:48.413Z,97.30
2019-04-06T06:21:47.984Z,95.90
2019-04-06T06:22:47.977Z,96.50
2019-04-06T06:23:47.960Z,96.70
2019-04-06T06:24:47.967Z,99.00
2019-04-06T06:25:48.050Z,90.50
2019-04-06T06:26:47.945Z,97.30
2019-04-06T06:27:48.097Z,96.30
2019-04-06T06:28:47.906Z,90.90
2019-04-06T06:29:47.896Z,95.10
2019-04-06T06:30:47.885Z,96.10
2019-04-06T06:31:47.919Z,97.50
2019-04-06T06:32:48.059Z,94.70
2019-04-06T06:33:47.854Z,96.50
2019-04-06T06:34:47.864Z,97.40
2019-04-06T06:35:47.831Z,94.20
2019-04-06T06:36:47.819Z,93.70
2019-04-06T06:37:47.836Z,94.90
2019-04-06T06:38:48.016Z,92.80
2019-04-06T06:39:47.831Z,95.50
2019-04-06T06:40:47.789Z,94.40
2019-04-06T06:41:47.764Z,95.20
2019-04-06T06:42:47.754Z,96.90
2019-04-06T06:43:47.759Z,98.10
2019-04-06T06:44:47.764Z,90.90
2019-04-06T06:45:47.749Z,98.70
2019-04-06T06:46:47.800Z,94.70
2019-04-06T06:47:47.709Z,96.60
2019-04-06T06:48:47.705Z,100.10
2019-04-06T06:49:47.693Z,99.90
2019-04-06T06:50:47.717Z,94.60
2019-04-06T06:51:47.655Z,89.60
2019-04-06T06:52:47.644Z,94.50
2019-04-06T06:53:47.633Z,96.20
2019-04-06T06:54:47.625Z,96.80
2019-04-06T06:55:47.629Z,92.30
2019-04-06T06:56:47.716Z,93.60
2019-04-06T06:57:47.608Z,92.60
2019-04-06T06:58:47.578Z,92.10
2019-04-06T06:59:47.568Z,95.40
2019-04-06T07:00:47.574Z,94.80
2019-04-06T07:01:47.547Z,93.60
2019-04-06T07:02:47.538Z,92.50
2019-04-06T07:03:47.559Z,93.30
2019-04-06T07:04:47.510Z,99.40
2019-04-06T07:05:47.509Z,91.80
2019-04-06T07:06:47.502Z,95.00
2019-04-06T07:07:47.528Z,91.60
2019-04-06T07:08:47.474Z,88.20
2019-04-06T07:09:47.461Z,95.40
2019-04-06T07:10:47.484Z,99.60
2019-04-06T07:11:47.436Z,99.30
2019-04-06T07:12:47.440Z,92.50
2019-04-06T07:13:47.416Z,94.60
2019-04-06T07:14:47.426Z,97.50
2019-04-06T07:15:47.396Z,99.80
2019-04-06T07:16:47.397Z,98.80
2019-04-06T07:17:47.529Z,90.20
2019-04-06T07:18:47.373Z,98.80
2019-04-06T07:19:47.348Z,99.70
2019-04-06T07:20:47.338Z,99.10
2019-04-06T07:21:47.352Z,97.50
2019-04-06T07:22:47.343Z,100.80
2019-04-06T07:23:47.381Z,97.90
2019-04-06T07:24:47.295Z,99.80
2019-04-06T07:25:56.611Z,98.40
2019-04-06T07:26:48.284Z,98.30
2019-04-06T07:27:47.315Z,99.90
2019-04-06T07:28:47.251Z,97.00
2019-04-06T07:29:47.340Z,97.40
2019-04-06T07:30:47.225Z,96.50
2019-04-06T07:31:47.216Z,94.60
2019-04-06T07:32:47.207Z,97.40
2019-04-06T07:33:47.208Z,104.90
2019-04-06T07:34:47.184Z,99.90
2019-04-06T07:35:47.193Z,98.90
2019-04-06T07:36:47.163Z,101.20
2019-04-06T07:37:47.154Z,96.00
2019-04-06T07:38:47.269Z,95.00
2019-04-06T07:39:47.142Z,100.80
2019-04-06T07:40:47.122Z,97.90
2019-04-06T07:41:47.244Z,103.70
2019-04-06T07:42:47.097Z,97.70
2019-04-06T07:43:47.086Z,103.30
2019-04-06T07:44:47.073Z,99.60
2019-04-06T07:45:47.079Z,97.00
2019-04-06T07:46:47.216Z,98.40
2019-04-06T07:47:47.062Z,100.10
2019-04-06T07:48:47.030Z,100.40
2019-04-06T07:49:47.042Z,104.20
2019-04-06T07:50:47.018Z,95.00
2019-04-06T07:51:47.008Z,103.40
2019-04-06T07:52:46.984Z,97.20
2019-04-06T07:53:47.073Z,103.20
2019-04-06T07:54:46.961Z,97.50
2019-04-06T07:55:47.110Z,99.60
2019-04-06T07:56:46.963Z,98.60
2019-04-06T07:57:46.931Z,95.00
2019-04-06T07:58:49.437Z,101.00
2019-04-06T07:59:46.925Z,97.90
2019-04-06T08:00:47.014Z,96.60
2019-04-06T08:01:48.553Z,101.60
2019-04-06T08:02:47.078Z,96.30
2019-04-06T08:03:46.922Z,95.20
2019-04-06T08:04:46.854Z,98.50
2019-04-06T08:05:46.852Z,95.60
2019-04-06T08:06:47.106Z,94.60
2019-04-06T08:07:46.850Z,101.60
2019-04-06T08:08:46.826Z,102.50
2019-04-06T08:09:46.808Z,97.60
2019-04-06T08:10:46.827Z,97.30
2019-04-06T08:11:54.339Z,100.50
2019-04-06T08:12:46.771Z,98.30
2019-04-06T08:13:46.761Z,95.80
2019-04-06T08:14:46.876Z,97.10
2019-04-06T08:15:46.740Z,98.30
2019-04-06T08:16:46.721Z,97.90
2019-04-06T08:17:46.716Z,96.90
2019-04-06T08:18:46.706Z,102.20
2019-04-06T08:19:46.705Z,99.40
2019-04-06T08:20:46.685Z,98.50
2019-04-06T08:21:46.670Z,96.50
2019-04-06T08:22:46.693Z,95.90
2019-04-06T08:23:46.678Z,97.40
2019-04-06T08:24:46.636Z,98.10
2019-04-06T08:25:46.630Z,99.20
2019-04-06T08:26:46.710Z,92.80
2019-04-06T08:27:46.606Z,101.50
2019-04-06T08:28:46.612Z,94.70
2019-04-06T08:29:46.716Z,97.30
2019-04-06T08:30:47.121Z,96.70
2019-04-06T08:31:46.732Z,98.50
2019-04-06T08:32:46.548Z,91.30
2019-04-06T08:33:46.544Z,99.60
2019-04-06T08:34:46.763Z,94.20
2019-04-06T08:35:46.529Z,104.20
2019-04-06T08:36:46.508Z,100.50
2019-04-06T08:37:46.492Z,99.90
2019-04-06T08:38:46.487Z,95.30
2019-04-06T08:39:46.635Z,95.60
2019-04-06T08:40:46.537Z,97.30
2019-04-06T08:41:46.561Z,94.80
2019-04-06T08:42:46.439Z,95.10
2019-04-06T08:43:46.434Z,92.00
2019-04-06T08:44:46.413Z,92.70
2019-04-06T08:45:46.464Z,95.00
2019-04-06T08:46:46.597Z,95.00
2019-04-06T08:47:46.383Z,98.70
2019-04-06T08:48:46.473Z,97.70
2019-04-06T08:49:46.370Z,94.50
2019-04-06T08:50:46.352Z,98.40
2019-04-06T08:51:46.338Z,98.10
2019-04-06T08:52:46.439Z,93.80
2019-04-06T08:53:46.322Z,96.10
2019-04-06T08:54:46.308Z,96.10
2019-04-06T08:55:46.294Z,101.00
2019-04-06T08:56:46.284Z,93.60
2019-04-06T08:57:46.275Z,97.40
2019-04-06T08:58:46.279Z,103.70
2019-04-06T08:59:46.251Z,98.20
2019-04-06T09:00:46.261Z,92.50
2019-04-06T09:01:46.234Z,96.50
2019-04-06T09:02:46.402Z,94.40
2019-04-06T09:03:46.215Z,97.40
2019-04-06T09:04:46.306Z,93.70
2019-04-06T09:05:46.195Z,93.20
2019-04-06T09:06:46.273Z,92.10
2019-04-06T09:07:46.184Z,94.60
2019-04-06T09:08:46.386Z,94.20
2019-04-06T09:09:46.144Z,94.40
2019-04-06T09:10:46.149Z,88.30
2019-04-06T09:11:46.117Z,95.90
2019-04-06T09:12:46.307Z,89.90
2019-04-06T09:13:46.117Z,90.10
2019-04-06T09:14:46.128Z,93.00
2019-04-06T09:15:46.089Z,98.40
2019-04-06T09:16:46.080Z,94.80
2019-04-06T09:17:46.295Z,88.90
2019-04-06T09:18:48.594Z,89.10
2019-04-06T09:19:46.080Z,93.60
2019-04-06T09:20:46.227Z,91.90
2019-04-06T09:21:46.017Z,92.40
2019-04-06T09:22:45.998Z,94.40
2019-04-06T09:23:45.988Z,86.60
2019-04-06T09:24:46.016Z,91.40
2019-04-06T09:25:45.959Z,89.70
2019-04-06T09:26:48.132Z,88.20
2019-04-06T09:27:45.937Z,86.10
2019-04-06T09:28:45.952Z,91.20
2019-04-06T09:29:45.921Z,95.00
2019-04-06T09:30:45.907Z,82.40
2019-04-06T09:31:45.890Z,84.30
2019-04-06T09:32:45.883Z,86.30
2019-04-06T09:33:45.874Z,87.80
2019-04-06T09:34:45.877Z,85.70
2019-04-06T09:35:45.861Z,84.80
2019-04-06T09:36:45.842Z,80.50
2019-04-06T09:37:45.849Z,83.60
2019-04-06T09:38:45.815Z,76.40
2019-04-06T09:39:46.049Z,79.80
2019-04-06T09:40:45.809Z,81.30
2019-04-06T09:41:45.803Z,81.50
2019-04-06T09:42:45.798Z,82.60
2019-04-06T09:43:45.762Z,78.20
2019-04-06T09:44:45.752Z,86.40
2019-04-06T09:45:46.167Z,79.90
2019-04-06T09:46:45.755Z,75.60
2019-04-06T09:47:45.883Z,75.70
2019-04-06T09:48:45.896Z,77.00
2019-04-06T09:49:45.718Z,77.90
2019-04-06T09:50:45.683Z,78.90
2019-04-06T09:51:45.927Z,77.50
2019-04-06T09:52:45.728Z,74.80
2019-04-06T09:53:45.996Z,73.00
2019-04-06T09:54:45.636Z,77.70
2019-04-06T09:55:45.629Z,77.00
2019-04-06T09:56:45.836Z,72.70
2019-04-06T09:57:45.633Z,76.40
2019-04-06T09:58:45.614Z,77.40
2019-04-06T09:59:48.044Z,79.00
2019-04-06T10:00:45.615Z,75.90
2019-04-06T10:01:45.589Z,76.00
2019-04-06T10:02:45.556Z,74.90
2019-04-06T10:03:45.541Z,74.20
2019-04-06T10:04:45.547Z,76.40
2019-04-06T10:05:45.522Z,74.10
2019-04-06T10:06:45.507Z,73.00
2019-04-06T10:07:45.500Z,73.60
2019-04-06T10:08:45.483Z,72.70
2019-04-06T10:09:45.504Z,75.60
2019-04-06T10:10:45.494Z,72.70
2019-04-06T10:11:45.691Z,73.00
2019-04-06T10:12:45.501Z,72.40
2019-04-06T10:13:45.449Z,72.80
2019-04-06T10:14:45.426Z,74.30
2019-04-06T10:15:45.410Z,66.80
2019-04-06T10:16:45.665Z,73.10
2019-04-06T10:17:45.394Z,76.20
2019-04-06T10:18:45.374Z,69.90
2019-04-06T10:19:45.366Z,71.40
2019-04-06T10:20:45.355Z,70.70
2019-04-06T10:21:45.370Z,71.20
2019-04-06T10:22:45.325Z,71.40
2019-04-06T10:23:45.315Z,69.30
2019-04-06T10:24:45.308Z,71.70
2019-04-06T10:25:45.300Z,69.00
2019-04-06T10:26:45.309Z,69.50
2019-04-06T10:27:45.294Z,69.00
2019-04-06T10:28:45.265Z,67.60
2019-04-06T10:29:48.943Z,68.40
2019-04-06T10:30:45.241Z,74.00
2019-04-06T10:31:45.233Z,67.40
2019-04-06T10:32:45.301Z,67.20
2019-04-06T10:33:45.231Z,67.00
2019-04-06T10:34:45.256Z,67.90
2019-04-06T10:35:45.186Z,65.70
2019-04-06T10:36:45.191Z,66.10
2019-04-06T10:37:45.187Z,69.20
2019-04-06T10:38:45.169Z,74.00
2019-04-06T10:39:45.150Z,66.20
2019-04-06T10:40:45.151Z,67.90
2019-04-06T10:41:45.124Z,68.10
2019-04-06T10:42:45.130Z,69.10
2019-04-06T10:43:45.102Z,71.70
2019-04-06T10:44:45.107Z,72.80
2019-04-06T10:45:45.368Z,74.70
2019-04-06T10:46:45.197Z,70.10
2019-04-06T10:47:45.056Z,70.50
2019-04-06T10:48:45.043Z,68.30
2019-04-06T10:49:45.053Z,64.90
2019-04-06T10:50:45.020Z,69.50
2019-04-06T10:51:45.015Z,70.80
2019-04-06T10:52:45.003Z,67.10
2019-04-06T10:53:45.117Z,68.10
2019-04-06T10:54:44.976Z,66.50
2019-04-06T10:55:44.972Z,67.00
2019-04-06T10:56:45.009Z,66.40
2019-04-06T10:57:44.940Z,65.50
2019-04-06T10:58:44.952Z,69.90
2019-04-06T10:59:45.112Z,67.80
2019-04-06T11:00:44.998Z,64.00
2019-04-06T11:01:45.201Z,67.80
2019-04-06T11:02:44.891Z,70.80
2019-04-06T11:03:44.883Z,67.60
2019-04-06T11:04:44.888Z,68.60
2019-04-06T11:05:44.854Z,67.50
2019-04-06T11:06:44.843Z,71.60
2019-04-06T11:07:45.092Z,68.70
2019-04-06T11:08:44.833Z,69.50
2019-04-06T11:09:44.820Z,64.50
2019-04-06T11:10:44.798Z,67.20
2019-04-06T11:11:44.785Z,66.60
2019-04-06T11:12:44.795Z,67.20
2019-04-06T11:13:45.010Z,64.90
2019-04-06T11:14:44.762Z,68.70
2019-04-06T11:15:44.740Z,66.40
2019-04-06T11:16:47.357Z,66.70
2019-04-06T11:17:44.744Z,66.40
2019-04-06T11:18:44.769Z,66.70
2019-04-06T11:19:44.710Z,71.30
2019-04-06T11:20:44.799Z,67.70
2019-04-06T11:21:44.679Z,65.70
2019-04-06T11:22:44.669Z,68.80
2019-04-06T11:23:44.669Z,67.10
2019-04-06T11:24:44.704Z,66.70
2019-04-06T11:25:44.651Z,67.20
2019-04-06T11:26:44.621Z,71.60
2019-04-06T11:27:44.617Z,65.90
2019-04-06T11:28:44.644Z,68.60
2019-04-06T11:29:44.588Z,65.20
2019-04-06T11:30:44.579Z,73.00
2019-04-06T11:31:44.865Z,69.60
2019-04-06T11:32:44.624Z,62.60
2019-04-06T11:33:44.546Z,60.80
2019-04-06T11:34:44.529Z,61.90
2019-04-06T11:35:44.534Z,61.60
2019-04-06T11:36:44.558Z,64.90
2019-04-06T11:37:44.519Z,62.00
2019-04-06T11:38:44.769Z,63.90
2019-04-06T11:39:44.486Z,59.90
2019-04-06T11:40:44.467Z,59.00
2019-04-06T11:41:44.479Z,58.50
2019-04-06T11:42:44.468Z,60.90
2019-04-06T11:43:44.675Z,60.70
2019-04-06T11:44:44.426Z,59.60
2019-04-06T11:45:44.414Z,63.40
2019-04-06T11:46:44.445Z,64.60
2019-04-06T11:47:44.484Z,64.10
2019-04-06T11:48:45.730Z,62.30
2019-04-06T11:49:44.368Z,59.90
2019-04-06T11:50:44.605Z,65.20
2019-04-06T11:51:44.379Z,59.30
2019-04-06T11:52:44.335Z,61.50
2019-04-06T11:53:44.532Z,60.30
2019-04-06T11:54:44.328Z,59.80
2019-04-06T11:55:44.947Z,59.80
2019-04-06T11:56:44.291Z,61.90
2019-04-06T11:57:44.280Z,60.50
2019-04-06T11:58:44.265Z,58.60
2019-04-06T11:59:44.258Z,59.10
2019-04-06T12:00:44.281Z,60.60
2019-04-06T12:01:44.237Z,61.90
2019-04-06T12:02:44.369Z,66.10
2019-04-06T12:03:44.237Z,68.10
2019-04-06T12:04:44.198Z,65.10
2019-04-06T12:05:44.526Z,68.80
2019-04-06T12:06:44.407Z,66.90
2019-04-06T12:07:44.199Z,62.40
2019-04-06T12:08:44.159Z,65.80
2019-04-06T12:09:44.150Z,66.60
2019-04-06T12:10:44.219Z,68.00
2019-04-06T12:11:44.169Z,69.20
2019-04-06T12:12:44.109Z,63.90
2019-04-06T12:13:44.446Z,68.20
2019-04-06T12:14:44.116Z,68.20
2019-04-06T12:15:44.106Z,67.40
2019-04-06T12:16:44.405Z,68.70
2019-04-06T12:17:44.104Z,67.20
2019-04-06T12:18:44.042Z,71.30
2019-04-06T12:19:44.046Z,70.50
2019-04-06T12:20:44.029Z,68.80
2019-04-06T12:21:44.016Z,68.30
2019-04-06T12:22:44.014Z,65.60
2019-04-06T12:23:43.987Z,66.50
2019-04-06T12:24:43.977Z,66.40
2019-04-06T12:25:43.967Z,72.50
2019-04-06T12:26:44.173Z,67.50
2019-04-06T12:27:44.299Z,66.20
2019-04-06T12:28:44.280Z,65.70
2019-04-06T12:29:44.085Z,70.00
2019-04-06T12:30:43.919Z,68.40
2019-04-06T12:31:43.909Z,67.20
2019-04-06T12:32:43.917Z,65.60
2019-04-06T12:33:44.191Z,66.40
2019-04-06T12:34:43.871Z,67.70
2019-04-06T12:35:43.992Z,68.40
2019-04-06T12:36:43.892Z,67.50
2019-04-06T12:37:43.836Z,65.30
2019-04-06T12:38:43.836Z,68.90
2019-04-06T12:39:52.578Z,66.20
2019-04-06T12:40:44.798Z,69.00
2019-04-06T12:41:43.795Z,65.70
2019-04-06T12:42:44.061Z,68.00
2019-04-06T12:43:43.785Z,67.60
2019-04-06T12:44:43.759Z,68.90
2019-04-06T12:45:43.749Z,70.50
2019-04-06T12:46:43.759Z,65.80
2019-04-06T12:47:43.800Z,65.10
2019-04-06T12:48:43.768Z,65.40
2019-04-06T12:49:43.707Z,65.30
2019-04-06T12:50:43.697Z,69.10